createdAt,value
2017-11-25T00:00:41.198Z,1000.96
2017-11-25T00:01:41.810Z,1000.95
2017-11-25T00:02:42.408Z,1000.97
2017-11-25T00:03:43.015Z,1000.94
2017-11-25T00:04:43.628Z,1000.92
2017-11-25T00:05:44.215Z,1000.94
2017-11-25T00:06:44.817Z,1000.94
2017-11-25T00:07:45.412Z,1000.94
2017-11-25T00:08:46.020Z,1001.00
2017-11-25T00:09:46.623Z,1000.98
2017-11-25T00:10:47.239Z,1000.93
2017-11-25T00:11:47.849Z,1000.89
2017-11-25T00:12:48.447Z,1000.83
2017-11-25T00:13:49.044Z,1000.84
2017-11-25T00:14:49.656Z,1000.82
2017-11-25T00:15:50.269Z,1000.78
2017-11-25T00:16:50.862Z,1000.79
2017-11-25T00:17:51.461Z,1000.78
2017-11-25T00:18:52.060Z,1000.80
2017-11-25T00:19:52.656Z,1000.75
2017-11-25T00:20:53.264Z,1000.75
2017-11-25T00:21:53.860Z,1000.69
2017-11-25T00:22:54.469Z,1000.67
2017-11-25T00:23:55.080Z,1000.62
2017-11-25T00:24:55.678Z,1000.60
2017-11-25T00:25:56.289Z,1000.55
2017-11-25T00:26:56.886Z,1000.55
2017-11-25T00:27:57.489Z,1000.53
2017-11-25T00:28:58.092Z,1000.54
2017-11-25T00:29:58.688Z,1000.60
2017-11-25T00:30:59.293Z,1000.61
2017-11-25T00:31:59.905Z,1000.58
2017-11-25T00:33:00.518Z,1000.61
2017-11-25T00:34:01.107Z,1000.56
2017-11-25T00:35:01.705Z,1000.57
2017-11-25T00:36:02.312Z,1000.58
2017-11-25T00:37:02.906Z,1000.61
2017-11-25T00:38:03.507Z,1000.59
2017-11-25T00:39:04.106Z,1000.65
2017-11-25T00:40:04.709Z,1000.64
2017-11-25T00:41:05.316Z,1000.65
2017-11-25T00:42:05.910Z,1000.63
2017-11-25T00:43:06.508Z,1000.66
2017-11-25T00:44:07.122Z,1000.61
2017-11-25T00:45:07.721Z,1000.58
2017-11-25T00:46:08.307Z,1000.56
2017-11-25T00:47:08.909Z,1000.56
2017-11-25T00:48:09.507Z,1000.51
2017-11-25T00:49:10.117Z,1000.53
2017-11-25T00:50:10.738Z,1000.52
2017-11-25T00:51:11.346Z,1000.51
2017-11-25T00:52:11.950Z,1000.51
2017-11-25T00:53:12.550Z,1000.54
2017-11-25T00:54:13.148Z,1000.56
2017-11-25T00:55:13.746Z,1000.56
2017-11-25T00:56:14.335Z,1000.57
2017-11-25T00:57:14.941Z,1000.58
2017-11-25T00:58:15.537Z,1000.52
2017-11-25T00:59:16.135Z,1000.50
2017-11-25T01:00:16.756Z,1000.50
2017-11-25T01:01:17.369Z,1000.47
2017-11-25T01:02:17.975Z,1000.44
2017-11-25T01:03:18.581Z,1000.45
2017-11-25T01:04:19.194Z,1000.44
2017-11-25T01:05:19.795Z,1000.43
2017-11-25T01:06:20.419Z,1000.43
2017-11-25T01:07:21.024Z,1000.43
2017-11-25T01:08:21.630Z,1000.45
2017-11-25T01:09:22.236Z,1000.54
2017-11-25T01:10:22.864Z,1000.55
2017-11-25T01:11:23.483Z,1000.55
2017-11-25T01:12:24.088Z,1000.51
2017-11-25T01:13:24.693Z,1000.58
2017-11-25T01:14:25.289Z,1000.53
2017-11-25T01:15:25.887Z,1000.63
2017-11-25T01:16:26.493Z,1000.62
2017-11-25T01:17:27.091Z,1000.62
2017-11-25T01:18:27.688Z,1000.67
2017-11-25T01:19:28.297Z,1000.63
2017-11-25T01:20:28.901Z,1000.68
2017-11-25T01:21:29.505Z,1000.66
2017-11-25T01:22:30.093Z,1000.61
2017-11-25T01:23:30.690Z,1000.62
2017-11-25T01:24:31.285Z,1000.57
2017-11-25T01:25:31.879Z,1000.53
2017-11-25T01:26:32.492Z,1000.58
2017-11-25T01:27:33.107Z,1000.54
2017-11-25T01:28:33.715Z,1000.54
2017-11-25T01:29:34.312Z,1000.53
2017-11-25T01:30:34.905Z,1000.45
2017-11-25T01:31:35.502Z,1000.42
2017-11-25T01:32:36.111Z,1000.37
2017-11-25T01:33:36.723Z,1000.36
2017-11-25T01:34:37.335Z,1000.35
2017-11-25T01:35:37.931Z,1000.31
2017-11-25T01:36:38.531Z,1000.30
2017-11-25T01:37:39.126Z,1000.34
2017-11-25T01:38:39.711Z,1000.35
2017-11-25T01:39:40.311Z,1000.33
2017-11-25T01:40:40.914Z,1000.39
2017-11-25T01:41:41.508Z,1000.35
2017-11-25T01:42:42.105Z,1000.32
2017-11-25T01:43:42.704Z,1000.38
2017-11-25T01:44:43.297Z,1000.42
2017-11-25T01:45:43.903Z,1000.44
2017-11-25T01:46:44.507Z,1000.38
2017-11-25T01:47:45.106Z,1000.36
2017-11-25T01:48:45.705Z,1000.39
2017-11-25T01:49:46.313Z,1000.30
2017-11-25T01:50:46.907Z,1000.28
2017-11-25T01:51:47.504Z,1000.24
2017-11-25T01:52:48.113Z,1000.25
2017-11-25T01:53:48.721Z,1000.21
2017-11-25T01:54:49.324Z,1000.17
2017-11-25T01:55:49.938Z,1000.22
2017-11-25T01:56:50.547Z,1000.23
2017-11-25T01:57:51.156Z,1000.24
2017-11-25T01:58:51.751Z,1000.25
2017-11-25T01:59:52.347Z,1000.29
2017-11-25T02:00:52.938Z,1000.27
2017-11-25T02:01:53.543Z,1000.19
2017-11-25T02:02:54.153Z,1000.15
2017-11-25T02:03:54.763Z,1000.22
2017-11-25T02:04:55.365Z,1000.14
2017-11-25T02:05:55.966Z,1000.12
2017-11-25T02:06:56.558Z,1000.17
2017-11-25T02:07:57.165Z,1000.10
2017-11-25T02:08:57.770Z,1000.09
2017-11-25T02:09:58.377Z,1000.06
2017-11-25T02:10:58.973Z,1000.02
2017-11-25T02:11:59.567Z,999.99
2017-11-25T02:13:00.172Z,999.97
2017-11-25T02:14:00.769Z,999.99
2017-11-25T02:15:01.373Z,1000.04
2017-11-25T02:16:01.971Z,1000.02
2017-11-25T02:17:02.561Z,1000.06
2017-11-25T02:18:03.168Z,1000.02
2017-11-25T02:19:03.778Z,999.99
2017-11-25T02:20:04.386Z,1000.04
2017-11-25T02:21:04.982Z,1000.04
2017-11-25T02:22:05.589Z,1000.05
2017-11-25T02:23:06.198Z,1000.06
2017-11-25T02:24:06.790Z,1000.10
2017-11-25T02:25:07.388Z,1000.11
2017-11-25T02:26:07.996Z,1000.12
2017-11-25T02:27:08.601Z,1000.21
2017-11-25T02:28:09.200Z,1000.23
2017-11-25T02:29:09.804Z,1000.21
2017-11-25T02:30:10.403Z,1000.23
2017-11-25T02:31:11.012Z,1000.24
2017-11-25T02:32:11.622Z,1000.19
2017-11-25T02:33:12.199Z,1000.19
2017-11-25T02:34:12.805Z,1000.15
2017-11-25T02:35:13.410Z,1000.11
2017-11-25T02:36:14.022Z,1000.11
2017-11-25T02:37:14.640Z,1000.07
2017-11-25T02:38:15.241Z,1000.04
2017-11-25T02:39:15.844Z,1000.07
2017-11-25T02:40:16.428Z,1000.08
2017-11-25T02:41:17.044Z,1000.02
2017-11-25T02:42:17.651Z,1000.02
2017-11-25T02:43:18.248Z,999.99
2017-11-25T02:44:18.853Z,1000.00
2017-11-25T02:45:19.450Z,1000.03
2017-11-25T02:46:20.060Z,1000.04
2017-11-25T02:47:20.666Z,999.97
2017-11-25T02:48:21.256Z,999.93
2017-11-25T02:49:21.854Z,999.90
2017-11-25T02:50:22.462Z,999.82
2017-11-25T02:51:23.070Z,999.82
2017-11-25T02:52:23.668Z,999.78
2017-11-25T02:53:24.267Z,999.80
2017-11-25T02:54:24.862Z,999.83
2017-11-25T02:55:25.457Z,999.81
2017-11-25T02:56:26.055Z,999.83
2017-11-25T02:57:26.664Z,999.82
2017-11-25T02:58:27.269Z,999.84
2017-11-25T02:59:27.875Z,999.88
2017-11-25T03:00:28.473Z,999.87
2017-11-25T03:01:29.087Z,999.93
2017-11-25T03:02:29.692Z,999.92
2017-11-25T03:03:30.278Z,999.90
2017-11-25T03:04:30.879Z,999.93
2017-11-25T03:05:31.486Z,999.96
2017-11-25T03:06:32.076Z,999.98
2017-11-25T03:07:32.679Z,999.94
2017-11-25T03:08:33.288Z,999.95
2017-11-25T03:09:33.896Z,999.92
2017-11-25T03:10:34.483Z,999.88
2017-11-25T03:11:35.092Z,999.95
2017-11-25T03:12:35.697Z,999.88
2017-11-25T03:13:36.303Z,999.92
2017-11-25T03:14:36.895Z,999.90
2017-11-25T03:15:37.500Z,999.95
2017-11-25T03:16:38.114Z,999.98
2017-11-25T03:17:38.693Z,999.97
2017-11-25T03:18:39.295Z,999.89
2017-11-25T03:19:39.895Z,999.86
2017-11-25T03:20:40.499Z,999.83
2017-11-25T03:21:41.114Z,999.83
2017-11-25T03:22:41.718Z,999.84
2017-11-25T03:23:42.321Z,999.79
2017-11-25T03:24:42.928Z,999.82
2017-11-25T03:25:43.531Z,999.80
2017-11-25T03:26:44.140Z,999.80
2017-11-25T03:27:44.738Z,999.84
2017-11-25T03:28:45.339Z,999.88
2017-11-25T03:29:45.928Z,999.91
2017-11-25T03:30:46.529Z,999.93
2017-11-25T03:31:47.121Z,999.96
2017-11-25T03:32:47.791Z,999.98
2017-11-25T03:33:48.403Z,999.96
2017-11-25T03:34:49.001Z,999.93
2017-11-25T03:35:49.595Z,999.89
2017-11-25T03:36:50.191Z,999.87
2017-11-25T03:37:50.786Z,999.86
2017-11-25T03:38:51.381Z,999.84
2017-11-25T03:39:51.990Z,999.83
2017-11-25T03:40:52.580Z,999.85
2017-11-25T03:41:53.179Z,999.81
2017-11-25T03:42:53.766Z,999.79
2017-11-25T03:43:54.369Z,999.80
2017-11-25T03:44:54.962Z,999.81
2017-11-25T03:45:55.562Z,999.84
2017-11-25T03:46:56.167Z,999.77
2017-11-25T03:47:56.767Z,999.80
2017-11-25T03:48:57.361Z,999.82
2017-11-25T03:49:57.957Z,999.82
2017-11-25T03:50:58.572Z,999.79
2017-11-25T03:51:59.160Z,999.77
2017-11-25T03:52:59.752Z,999.74
2017-11-25T03:54:00.361Z,999.61
2017-11-25T03:55:00.965Z,999.54
2017-11-25T03:56:01.560Z,999.56
2017-11-25T03:57:02.159Z,999.57
2017-11-25T03:58:02.751Z,999.55
2017-11-25T03:59:03.356Z,999.53
2017-11-25T04:00:03.946Z,999.57
2017-11-25T04:01:04.541Z,999.57
2017-11-25T04:02:05.144Z,999.61
2017-11-25T04:03:05.737Z,999.56
2017-11-25T04:04:06.329Z,999.57
2017-11-25T04:05:06.913Z,999.56
2017-11-25T04:06:07.510Z,999.54
2017-11-25T04:07:08.113Z,999.59
2017-11-25T04:08:08.706Z,999.57
2017-11-25T04:09:09.310Z,999.61
2017-11-25T04:10:09.918Z,999.63
2017-11-25T04:11:10.517Z,999.60
2017-11-25T04:12:11.124Z,999.59
2017-11-25T04:13:11.721Z,999.61
2017-11-25T04:14:12.329Z,999.65
2017-11-25T04:15:12.921Z,999.63
2017-11-25T04:16:13.530Z,999.68
2017-11-25T04:17:14.124Z,999.67
2017-11-25T04:18:14.717Z,999.69
2017-11-25T04:19:15.312Z,999.67
2017-11-25T04:20:15.922Z,999.64
2017-11-25T04:21:16.521Z,999.63
2017-11-25T04:22:17.134Z,999.59
2017-11-25T04:23:17.745Z,999.57
2017-11-25T04:24:18.334Z,999.58
2017-11-25T04:25:18.925Z,999.60
2017-11-25T04:26:19.528Z,999.54
2017-11-25T04:27:20.131Z,999.54
2017-11-25T04:28:20.747Z,999.52
2017-11-25T04:29:21.354Z,999.48
2017-11-25T04:30:21.958Z,999.46
2017-11-25T04:31:22.560Z,999.41
2017-11-25T04:32:23.166Z,999.39
2017-11-25T04:33:23.760Z,999.38
2017-11-25T04:34:24.343Z,999.34
2017-11-25T04:35:24.943Z,999.34
2017-11-25T04:36:25.540Z,999.27
2017-11-25T04:37:26.142Z,999.29
2017-11-25T04:38:26.748Z,999.27
2017-11-25T04:39:27.349Z,999.34
2017-11-25T04:40:27.943Z,999.34
2017-11-25T04:41:28.549Z,999.40
2017-11-25T04:42:29.146Z,999.38
2017-11-25T04:43:29.755Z,999.44
2017-11-25T04:44:30.360Z,999.46
2017-11-25T04:45:30.955Z,999.44
2017-11-25T04:46:31.552Z,999.44
2017-11-25T04:47:32.145Z,999.45
2017-11-25T04:48:32.757Z,999.46
2017-11-25T04:49:33.373Z,999.45
2017-11-25T04:50:33.985Z,999.49
2017-11-25T04:51:34.616Z,999.43
2017-11-25T04:52:35.210Z,999.43
2017-11-25T04:53:35.816Z,999.40
2017-11-25T04:54:36.423Z,999.35
2017-11-25T04:55:37.024Z,999.33
2017-11-25T04:56:37.625Z,999.36
2017-11-25T04:57:38.217Z,999.34
2017-11-25T04:58:38.828Z,999.33
2017-11-25T04:59:39.422Z,999.26
2017-11-25T05:00:40.027Z,999.29
2017-11-25T05:01:40.636Z,999.33
2017-11-25T05:02:41.213Z,999.30
2017-11-25T05:03:41.813Z,999.32
2017-11-25T05:04:42.415Z,999.31
2017-11-25T05:05:43.013Z,999.29
2017-11-25T05:06:43.603Z,999.30
2017-11-25T05:07:44.211Z,999.28
2017-11-25T05:08:44.911Z,999.30
2017-11-25T05:09:45.519Z,999.31
2017-11-25T05:10:46.127Z,999.30
2017-11-25T05:11:46.725Z,999.37
2017-11-25T05:12:47.332Z,999.36
2017-11-25T05:13:47.936Z,999.35
2017-11-25T05:14:48.534Z,999.40
2017-11-25T05:15:49.131Z,999.45
2017-11-25T05:16:49.733Z,999.45
2017-11-25T05:17:50.338Z,999.45
2017-11-25T05:18:50.948Z,999.47
2017-11-25T05:19:51.548Z,999.51
2017-11-25T05:20:52.148Z,999.50
2017-11-25T05:21:52.738Z,999.50
2017-11-25T05:22:53.339Z,999.54
2017-11-25T05:23:53.958Z,999.56
2017-11-25T05:24:54.552Z,999.51
2017-11-25T05:25:55.149Z,999.51
2017-11-25T05:26:55.747Z,999.48
2017-11-25T05:27:56.341Z,999.51
2017-11-25T05:28:56.955Z,999.51
2017-11-25T05:29:57.545Z,999.50
2017-11-25T05:30:58.152Z,999.48
2017-11-25T05:31:58.753Z,999.50
2017-11-25T05:32:59.357Z,999.54
2017-11-25T05:33:59.961Z,999.53
2017-11-25T05:35:00.556Z,999.49
2017-11-25T05:36:01.164Z,999.49
2017-11-25T05:37:01.775Z,999.46
2017-11-25T05:38:02.362Z,999.48
2017-11-25T05:39:02.956Z,999.46
2017-11-25T05:40:03.567Z,999.46
2017-11-25T05:41:04.179Z,999.47
2017-11-25T05:42:04.774Z,999.53
2017-11-25T05:43:05.359Z,999.52
2017-11-25T05:44:05.950Z,999.55
2017-11-25T05:45:06.554Z,999.54
2017-11-25T05:46:07.161Z,999.51
2017-11-25T05:47:07.757Z,999.51
2017-11-25T05:48:08.363Z,999.52
2017-11-25T05:49:08.966Z,999.59
2017-11-25T05:50:09.569Z,999.57
2017-11-25T05:51:10.171Z,999.58
2017-11-25T05:52:10.777Z,999.60
2017-11-25T05:53:11.385Z,999.63
2017-11-25T05:54:11.983Z,999.65
2017-11-25T05:55:12.577Z,999.63
2017-11-25T05:56:13.174Z,999.58
2017-11-25T05:57:13.778Z,999.61
2017-11-25T05:58:14.386Z,999.58
2017-11-25T05:59:14.987Z,999.59
2017-11-25T06:00:15.576Z,999.62
2017-11-25T06:01:16.180Z,999.61
2017-11-25T06:02:16.786Z,999.62
2017-11-25T06:03:17.374Z,999.60
2017-11-25T06:04:18.001Z,999.61
2017-11-25T06:05:18.580Z,999.60
2017-11-25T06:06:19.178Z,999.63
2017-11-25T06:07:19.781Z,999.64
2017-11-25T06:08:20.386Z,999.67
2017-11-25T06:09:20.989Z,999.66
2017-11-25T06:10:21.593Z,999.66
2017-11-25T06:11:22.199Z,999.66
2017-11-25T06:12:22.798Z,999.64
2017-11-25T06:13:23.388Z,999.64
2017-11-25T06:14:23.990Z,999.61
2017-11-25T06:15:24.593Z,999.60
2017-11-25T06:16:25.227Z,999.62
2017-11-25T06:17:25.781Z,999.58
2017-11-25T06:18:26.373Z,999.61
2017-11-25T06:19:26.961Z,999.62
2017-11-25T06:20:27.573Z,999.61
2017-11-25T06:21:28.161Z,999.66
2017-11-25T06:22:28.768Z,999.70
2017-11-25T06:23:29.361Z,999.69
2017-11-25T06:24:29.968Z,999.73
2017-11-25T06:25:30.573Z,999.78
2017-11-25T06:26:31.179Z,999.83
2017-11-25T06:27:31.772Z,999.89
2017-11-25T06:28:32.382Z,999.94
2017-11-25T06:29:32.991Z,999.94
2017-11-25T06:30:33.597Z,999.96
2017-11-25T06:31:34.214Z,999.98
2017-11-25T06:32:34.816Z,999.97
2017-11-25T06:33:35.411Z,1000.00
2017-11-25T06:34:36.001Z,999.99
2017-11-25T06:35:36.604Z,999.99
2017-11-25T06:36:37.207Z,1000.06
2017-11-25T06:37:37.815Z,1000.08
2017-11-25T06:38:38.424Z,1000.15
2017-11-25T06:39:39.022Z,1000.18
2017-11-25T06:40:39.623Z,1000.17
2017-11-25T06:41:40.214Z,1000.21
2017-11-25T06:42:40.813Z,1000.17
2017-11-25T06:43:41.408Z,1000.20
2017-11-25T06:44:42.021Z,1000.17
2017-11-25T06:45:42.615Z,1000.19
2017-11-25T06:46:43.205Z,1000.19
2017-11-25T06:47:43.802Z,1000.21
2017-11-25T06:48:44.408Z,1000.19
2017-11-25T06:49:45.014Z,1000.20
2017-11-25T06:50:45.615Z,1000.24
2017-11-25T06:51:46.213Z,1000.22
2017-11-25T06:52:46.822Z,1000.26
2017-11-25T06:53:47.430Z,1000.28
2017-11-25T06:54:48.043Z,1000.31
2017-11-25T06:55:48.636Z,1000.33
2017-11-25T06:56:49.235Z,1000.33
2017-11-25T06:57:49.834Z,1000.29
2017-11-25T06:58:50.434Z,1000.33
2017-11-25T06:59:51.039Z,1000.30
2017-11-25T07:00:51.669Z,1000.33
2017-11-25T07:01:52.243Z,1000.32
2017-11-25T07:02:52.834Z,1000.33
2017-11-25T07:03:53.435Z,1000.34
2017-11-25T07:04:54.035Z,1000.33
2017-11-25T07:05:54.639Z,1000.34
2017-11-25T07:06:55.251Z,1000.34
2017-11-25T07:07:55.846Z,1000.42
2017-11-25T07:08:56.462Z,1000.38
2017-11-25T07:09:57.070Z,1000.41
2017-11-25T07:10:57.674Z,1000.42
2017-11-25T07:11:58.278Z,1000.44
2017-11-25T07:12:58.885Z,1000.47
2017-11-25T07:13:59.477Z,1000.50
2017-11-25T07:15:00.083Z,1000.50
2017-11-25T07:16:00.691Z,1000.55
2017-11-25T07:17:01.283Z,1000.59
2017-11-25T07:18:01.891Z,1000.57
2017-11-25T07:19:02.508Z,1000.60
2017-11-25T07:20:03.118Z,1000.58
2017-11-25T07:21:03.734Z,1000.64
2017-11-25T07:22:04.351Z,1000.61
2017-11-25T07:23:04.945Z,1000.56
2017-11-25T07:24:05.550Z,1000.61
2017-11-25T07:25:06.167Z,1000.61
2017-11-25T07:26:06.766Z,1000.60
2017-11-25T07:27:07.376Z,1000.64
2017-11-25T07:28:07.970Z,1000.65
2017-11-25T07:29:08.582Z,1000.71
2017-11-25T07:30:09.182Z,1000.72
2017-11-25T07:31:09.794Z,1000.74
2017-11-25T07:32:10.406Z,1000.82
2017-11-25T07:33:11.003Z,1000.82
2017-11-25T07:34:11.602Z,1000.80
2017-11-25T07:35:12.202Z,1000.83
2017-11-25T07:36:12.809Z,1000.82
2017-11-25T07:37:13.409Z,1000.78
2017-11-25T07:38:14.025Z,1000.78
2017-11-25T07:39:14.620Z,1000.82
2017-11-25T07:40:15.221Z,1000.82
2017-11-25T07:41:15.817Z,1000.84
2017-11-25T07:42:16.417Z,1000.85
2017-11-25T07:43:17.034Z,1000.87
2017-11-25T07:44:17.624Z,1000.87
2017-11-25T07:45:18.219Z,1000.94
2017-11-25T07:46:18.818Z,1000.99
2017-11-25T07:47:19.413Z,1000.97
2017-11-25T07:48:20.022Z,1000.95
2017-11-25T07:49:20.625Z,1001.02
2017-11-25T07:50:21.226Z,1000.96
2017-11-25T07:51:21.843Z,1000.97
2017-11-25T07:52:22.447Z,1001.00
2017-11-25T07:53:23.047Z,1000.98
2017-11-25T07:54:23.651Z,1001.01
2017-11-25T07:55:24.255Z,1001.03
2017-11-25T07:56:24.847Z,1001.05
2017-11-25T07:57:25.445Z,1001.08
2017-11-25T07:58:26.058Z,1001.07
2017-11-25T07:59:26.668Z,1001.12
2017-11-25T08:00:27.286Z,1001.14
2017-11-25T08:01:27.901Z,1001.17
2017-11-25T08:02:28.511Z,1001.17
2017-11-25T08:03:29.119Z,1001.18
2017-11-25T08:04:29.719Z,1001.18
2017-11-25T08:05:30.332Z,1001.18
2017-11-25T08:06:30.941Z,1001.18
2017-11-25T08:07:31.553Z,1001.17
2017-11-25T08:08:32.165Z,1001.21
2017-11-25T08:09:32.758Z,1001.23
2017-11-25T08:10:33.375Z,1001.27
2017-11-25T08:11:33.979Z,1001.29
2017-11-25T08:12:34.590Z,1001.31
2017-11-25T08:13:35.206Z,1001.32
2017-11-25T08:14:35.816Z,1001.32
2017-11-25T08:15:36.419Z,1001.30
2017-11-25T08:16:37.013Z,1001.35
2017-11-25T08:17:37.631Z,1001.35
2017-11-25T08:18:38.223Z,1001.35
2017-11-25T08:19:38.835Z,1001.37
2017-11-25T08:20:39.449Z,1001.39
2017-11-25T08:21:40.066Z,1001.39
2017-11-25T08:22:40.682Z,1001.37
2017-11-25T08:23:41.292Z,1001.43
2017-11-25T08:24:42.111Z,1001.41
2017-11-25T08:25:42.717Z,1001.43
2017-11-25T08:26:43.314Z,1001.45
2017-11-25T08:27:43.914Z,1001.45
2017-11-25T08:28:44.526Z,1001.50
2017-11-25T08:29:45.116Z,1001.48
2017-11-25T08:30:45.714Z,1001.53
2017-11-25T08:31:46.320Z,1001.53
2017-11-25T08:32:46.923Z,1001.50
2017-11-25T08:33:47.530Z,1001.50
2017-11-25T08:34:48.141Z,1001.49
2017-11-25T08:35:48.746Z,1001.50
2017-11-25T08:36:49.360Z,1001.48
2017-11-25T08:37:49.968Z,1001.50
2017-11-25T08:38:50.586Z,1001.48
2017-11-25T08:39:51.195Z,1001.49
2017-11-25T08:40:51.797Z,1001.48
2017-11-25T08:41:52.416Z,1001.52
2017-11-25T08:42:53.037Z,1001.51
2017-11-25T08:43:53.651Z,1001.51
2017-11-25T08:44:54.266Z,1001.53
2017-11-25T08:45:54.865Z,1001.52
2017-11-25T08:46:55.480Z,1001.52
2017-11-25T08:47:56.093Z,1001.51
2017-11-25T08:48:56.702Z,1001.51
2017-11-25T08:49:57.310Z,1001.55
2017-11-25T08:50:57.915Z,1001.56
2017-11-25T08:51:58.567Z,1001.53
2017-11-25T08:52:59.162Z,1001.52
2017-11-25T08:53:59.772Z,1001.53
2017-11-25T08:55:00.391Z,1001.56
2017-11-25T08:56:00.987Z,1001.50
2017-11-25T08:57:01.582Z,1001.55
2017-11-25T08:58:02.204Z,1001.56
2017-11-25T08:59:02.800Z,1001.51
2017-11-25T09:00:03.418Z,1001.53
2017-11-25T09:01:04.022Z,1001.53
2017-11-25T09:02:04.614Z,1001.52
2017-11-25T09:03:05.217Z,1001.54
2017-11-25T09:04:05.812Z,1001.58
2017-11-25T09:05:06.425Z,1001.58
2017-11-25T09:06:07.036Z,1001.63
2017-11-25T09:07:07.631Z,1001.57
2017-11-25T09:08:08.220Z,1001.62
2017-11-25T09:09:08.819Z,1001.64
2017-11-25T09:10:09.428Z,1001.63
2017-11-25T09:11:10.032Z,1001.63
2017-11-25T09:12:10.651Z,1001.65
2017-11-25T09:13:11.255Z,1001.69
2017-11-25T09:14:11.852Z,1001.70
2017-11-25T09:15:12.466Z,1001.66
2017-11-25T09:16:13.073Z,1001.69
2017-11-25T09:17:13.676Z,1001.70
2017-11-25T09:18:14.293Z,1001.70
2017-11-25T09:19:14.918Z,1001.75
2017-11-25T09:20:15.508Z,1001.75
2017-11-25T09:21:16.117Z,1001.77
2017-11-25T09:22:16.720Z,1001.74
2017-11-25T09:23:17.361Z,1001.77
2017-11-25T09:24:17.996Z,1001.76
2017-11-25T09:25:18.607Z,1001.78
2017-11-25T09:26:19.226Z,1001.77
2017-11-25T09:27:19.819Z,1001.79
2017-11-25T09:28:20.427Z,1001.79
2017-11-25T09:29:21.061Z,1001.79
2017-11-25T09:30:21.671Z,1001.82
2017-11-25T09:31:22.293Z,1001.89
2017-11-25T09:32:22.887Z,1001.85
2017-11-25T09:33:23.490Z,1001.91
2017-11-25T09:34:24.107Z,1001.91
2017-11-25T09:35:24.716Z,1001.91
2017-11-25T09:36:25.324Z,1001.93
2017-11-25T09:37:25.931Z,1001.94
2017-11-25T09:38:26.543Z,1001.91
2017-11-25T09:39:27.148Z,1001.94
2017-11-25T09:40:27.753Z,1001.97
2017-11-25T09:41:28.356Z,1001.99
2017-11-25T09:42:28.968Z,1002.05
2017-11-25T09:43:29.570Z,1002.03
2017-11-25T09:44:30.199Z,1002.03
2017-11-25T09:45:30.818Z,1002.05
2017-11-25T09:46:31.453Z,1002.05
2017-11-25T09:47:32.029Z,1002.09
2017-11-25T09:48:32.641Z,1002.09
2017-11-25T09:49:33.238Z,1002.11
2017-11-25T09:50:33.844Z,1002.07
2017-11-25T09:51:34.451Z,1002.09
2017-11-25T09:52:35.057Z,1002.11
2017-11-25T09:53:35.659Z,1002.05
2017-11-25T09:54:36.266Z,1002.05
2017-11-25T09:55:36.868Z,1002.04
2017-11-25T09:56:37.479Z,1002.07
2017-11-25T09:57:38.089Z,1002.06
2017-11-25T09:58:38.695Z,1002.05
2017-11-25T09:59:39.297Z,1002.04
2017-11-25T10:00:39.911Z,1002.05
2017-11-25T10:01:40.521Z,1002.01
2017-11-25T10:02:41.129Z,1002.00
2017-11-25T10:03:41.721Z,1002.00
2017-11-25T10:04:42.324Z,1002.01
2017-11-25T10:05:42.944Z,1002.01
2017-11-25T10:06:43.537Z,1002.03
2017-11-25T10:07:44.134Z,1002.01
2017-11-25T10:08:44.735Z,1002.04
2017-11-25T10:09:45.345Z,1002.07
2017-11-25T10:10:45.961Z,1002.04
2017-11-25T10:11:46.567Z,1002.06
2017-11-25T10:12:47.172Z,1002.07
2017-11-25T10:13:47.786Z,1002.03
2017-11-25T10:14:48.398Z,1002.07
2017-11-25T10:15:49.008Z,1002.07
2017-11-25T10:16:49.615Z,1002.08
2017-11-25T10:17:50.213Z,1002.07
2017-11-25T10:18:50.816Z,1002.08
2017-11-25T10:19:51.419Z,1002.08
2017-11-25T10:20:52.037Z,1002.08
2017-11-25T10:21:52.650Z,1002.08
2017-11-25T10:22:53.248Z,1002.09
2017-11-25T10:23:53.851Z,1002.13
2017-11-25T10:24:54.449Z,1002.07
2017-11-25T10:25:55.055Z,1002.13
2017-11-25T10:26:55.666Z,1002.13
2017-11-25T10:27:56.291Z,1002.19
2017-11-25T10:28:56.898Z,1002.17
2017-11-25T10:29:57.503Z,1002.19
2017-11-25T10:30:58.112Z,1002.24
2017-11-25T10:31:58.709Z,1002.20
2017-11-25T10:32:59.318Z,1002.20
2017-11-25T10:33:59.983Z,1002.16
2017-11-25T10:35:00.604Z,1002.19
2017-11-25T10:36:01.227Z,1002.23
2017-11-25T10:37:01.844Z,1002.20
2017-11-25T10:38:02.449Z,1002.21
2017-11-25T10:39:03.064Z,1002.18
2017-11-25T10:40:03.661Z,1002.17
2017-11-25T10:41:04.258Z,1002.14
2017-11-25T10:42:04.868Z,1002.15
2017-11-25T10:43:05.488Z,1002.17
2017-11-25T10:44:06.099Z,1002.19
2017-11-25T10:45:06.700Z,1002.22
2017-11-25T10:46:07.312Z,1002.25
2017-11-25T10:47:07.936Z,1002.29
2017-11-25T10:48:08.554Z,1002.30
2017-11-25T10:49:09.172Z,1002.29
2017-11-25T10:50:09.794Z,1002.29
2017-11-25T10:51:10.413Z,1002.32
2017-11-25T10:52:11.018Z,1002.29
2017-11-25T10:53:11.615Z,1002.29
2017-11-25T10:54:12.220Z,1002.26
2017-11-25T10:55:12.837Z,1002.28
2017-11-25T10:56:13.463Z,1002.30
2017-11-25T10:57:14.076Z,1002.34
2017-11-25T10:58:14.679Z,1002.32
2017-11-25T10:59:15.275Z,1002.35
2017-11-25T11:00:15.873Z,1002.30
2017-11-25T11:01:16.484Z,1002.38
2017-11-25T11:02:17.078Z,1002.38
2017-11-25T11:03:17.681Z,1002.34
2017-11-25T11:04:18.288Z,1002.37
2017-11-25T11:05:18.895Z,1002.31
2017-11-25T11:06:19.505Z,1002.35
2017-11-25T11:07:20.124Z,1002.30
2017-11-25T11:08:20.743Z,1002.32
2017-11-25T11:09:21.344Z,1002.31
2017-11-25T11:10:21.952Z,1002.27
2017-11-25T11:11:22.548Z,1002.34
2017-11-25T11:12:23.144Z,1002.33
2017-11-25T11:13:23.750Z,1002.37
2017-11-25T11:14:24.364Z,1002.38
2017-11-25T11:15:24.994Z,1002.40
2017-11-25T11:16:25.594Z,1002.35
2017-11-25T11:17:26.196Z,1002.40
2017-11-25T11:18:26.805Z,1002.39
2017-11-25T11:19:27.420Z,1002.38
2017-11-25T11:20:28.027Z,1002.38
2017-11-25T11:21:28.636Z,1002.38
2017-11-25T11:22:29.248Z,1002.34
2017-11-25T11:23:29.854Z,1002.36
2017-11-25T11:24:30.464Z,1002.34
2017-11-25T11:25:31.081Z,1002.36
2017-11-25T11:26:31.681Z,1002.37
2017-11-25T11:27:32.291Z,1002.40
2017-11-25T11:28:32.900Z,1002.42
2017-11-25T11:29:33.504Z,1002.43
2017-11-25T11:30:34.111Z,1002.48
2017-11-25T11:31:34.726Z,1002.44
2017-11-25T11:32:35.342Z,1002.47
2017-11-25T11:33:35.954Z,1002.43
2017-11-25T11:34:36.555Z,1002.45
2017-11-25T11:35:37.154Z,1002.53
2017-11-25T11:36:37.769Z,1002.46
2017-11-25T11:37:38.384Z,1002.47
2017-11-25T11:38:38.996Z,1002.50
2017-11-25T11:39:39.605Z,1002.51
2017-11-25T11:40:40.214Z,1002.53
2017-11-25T11:41:40.829Z,1002.53
2017-11-25T11:42:41.430Z,1002.58
2017-11-25T11:43:42.045Z,1002.55
2017-11-25T11:44:42.647Z,1002.59
2017-11-25T11:45:43.252Z,1002.52
2017-11-25T11:46:43.857Z,1002.52
2017-11-25T11:47:44.469Z,1002.54
2017-11-25T11:48:45.078Z,1002.56
2017-11-25T11:49:45.697Z,1002.55
2017-11-25T11:50:46.316Z,1002.55
2017-11-25T11:51:46.939Z,1002.54
2017-11-25T11:52:47.561Z,1002.55
2017-11-25T11:53:48.176Z,1002.54
2017-11-25T11:54:48.796Z,1002.52
2017-11-25T11:55:49.413Z,1002.54
2017-11-25T11:56:50.025Z,1002.57
2017-11-25T11:57:50.632Z,1002.54
2017-11-25T11:58:51.255Z,1002.54
2017-11-25T11:59:51.869Z,1002.55
2017-11-25T12:00:52.486Z,1002.60
2017-11-25T12:01:53.099Z,1002.58
2017-11-25T12:02:53.704Z,1002.58
2017-11-25T12:03:54.323Z,1002.59
2017-11-25T12:04:54.941Z,1002.61
2017-11-25T12:05:55.543Z,1002.57
2017-11-25T12:06:56.159Z,1002.64
2017-11-25T12:07:56.772Z,1002.63
2017-11-25T12:08:57.386Z,1002.62
2017-11-25T12:09:57.998Z,1002.61
2017-11-25T12:10:58.606Z,1002.65
2017-11-25T12:11:59.230Z,1002.66
2017-11-25T12:12:59.847Z,1002.66
2017-11-25T12:14:00.465Z,1002.65
2017-11-25T12:15:01.076Z,1002.71
2017-11-25T12:16:01.689Z,1002.66
2017-11-25T12:17:02.310Z,1002.71
2017-11-25T12:18:02.924Z,1002.69
2017-11-25T12:19:03.527Z,1002.68
2017-11-25T12:20:04.147Z,1002.68